sensor_id;sensor_type;location;lat;lon;timestamp;pressure;altitude;pressure_sealevel;temperature;humidity
54122;BME280;40029;58.708;50.190;2023-04-05T00:01:18;100139.03;;;8.33;35.69
54122;BME280;40029;58.708;50.190;2023-04-05T00:03:54;100115.97;;;8.21;35.78
54122;BME280;40029;58.708;50.190;2023-04-05T00:06:29;100107.38;;;8.17;36.06
54122;BME280;40029;58.708;50.190;2023-04-05T00:09:02;100150.13;;;8.41;36.34
54122;BME280;40029;58.708;50.190;2023-04-05T00:11:33;100147.59;;;8.38;35.91
54122;BME280;40029;58.708;50.190;2023-04-05T00:14:04;100113.38;;;8.21;36.49
54122;BME280;40029;58.708;50.190;2023-04-05T00:16:36;100111.72;;;8.15;36.21
54122;BME280;40029;58.708;50.190;2023-04-05T00:19:07;100112.69;;;8.13;36.53
54122;BME280;40029;58.708;50.190;2023-04-05T00:21:41;100106.00;;;8.01;36.37
54122;BME280;40029;58.708;50.190;2023-04-05T00:24:30;100154.75;;;8.27;36.29
54122;BME280;40029;58.708;50.190;2023-04-05T00:27:03;100168.66;;;8.24;36.01
54122;BME280;40029;58.708;50.190;2023-04-05T00:29:35;100125.72;;;8.10;36.07
54122;BME280;40029;58.708;50.190;2023-04-05T00:32:06;100162.56;;;8.25;36.42
54122;BME280;40029;58.708;50.190;2023-04-05T00:34:38;100149.81;;;8.15;36.64
54122;BME280;40029;58.708;50.190;2023-04-05T00:37:10;100107.22;;;7.86;36.74
54122;BME280;40029;58.708;50.190;2023-04-05T00:40:00;100158.44;;;8.17;36.97
54122;BME280;40029;58.708;50.190;2023-04-05T00:42:31;100154.94;;;8.18;36.70
54122;BME280;40029;58.708;50.190;2023-04-05T00:45:02;100090.84;;;7.83;36.74
54122;BME280;40029;58.708;50.190;2023-04-05T00:47:35;100101.94;;;7.89;36.67
54122;BME280;40029;58.708;50.190;2023-04-05T00:50:07;100107.84;;;7.96;36.83
54122;BME280;40029;58.708;50.190;2023-04-05T00:52:39;100153.09;;;8.23;36.66
54122;BME280;40029;58.708;50.190;2023-04-05T00:55:11;100100.19;;;7.90;36.53
54122;BME280;40029;58.708;50.190;2023-04-05T00:57:43;100104.50;;;7.91;36.38
54122;BME280;40029;58.708;50.190;2023-04-05T01:00:15;100146.31;;;8.17;36.46
54122;BME280;40029;58.708;50.190;2023-04-05T01:02:50;100145.34;;;8.21;36.92
54122;BME280;40029;58.708;50.190;2023-04-05T01:05:39;100147.06;;;8.22;36.81
54122;BME280;40029;58.708;50.190;2023-04-05T01:08:39;100107.84;;;7.96;36.56
54122;BME280;40029;58.708;50.190;2023-04-05T01:11:15;100142.88;;;8.15;36.62
54122;BME280;40029;58.708;50.190;2023-04-05T01:13:48;100101.13;;;7.87;36.86
54122;BME280;40029;58.708;50.190;2023-04-05T01:16:19;100104.50;;;7.91;36.79
54122;BME280;40029;58.708;50.190;2023-04-05T01:18:51;100056.81;;;7.58;37.00
54122;BME280;40029;58.708;50.190;2023-04-05T01:24:19;100143.78;;;8.14;37.29
54122;BME280;40029;58.708;50.190;2023-04-05T01:27:10;100134.56;;;8.01;37.24
54122;BME280;40029;58.708;50.190;2023-04-05T01:29:52;100136.34;;;7.99;37.59
54122;BME280;40029;58.708;50.190;2023-04-05T01:35:31;100057.13;;;7.42;37.09
54122;BME280;40029;58.708;50.190;2023-04-05T01:38:27;100152.97;;;7.89;37.10
54122;BME280;40029;58.708;50.190;2023-04-05T01:41:00;100111.09;;;7.65;36.89
54122;BME280;40029;58.708;50.190;2023-04-05T01:43:31;100147.81;;;7.87;37.08
54122;BME280;40029;58.708;50.190;2023-04-05T01:46:05;100142.75;;;7.83;37.51
54122;BME280;40029;58.708;50.190;2023-04-05T01:48:36;100145.38;;;7.80;37.23
54122;BME280;40029;58.708;50.190;2023-04-05T01:51:07;100091.47;;;7.54;37.25
54122;BME280;40029;58.708;50.190;2023-04-05T01:53:57;100099.09;;;7.60;37.21
54122;BME280;40029;58.708;50.190;2023-04-05T01:56:28;100136.59;;;7.87;37.17
54122;BME280;40029;58.708;50.190;2023-04-05T01:59:00;100145.19;;;7.89;37.79
54122;BME280;40029;58.708;50.190;2023-04-05T02:01:31;100135.50;;;7.97;37.62
54122;BME280;40029;58.708;50.190;2023-04-05T02:04:03;100095.47;;;7.68;37.60
54122;BME280;40029;58.708;50.190;2023-04-05T02:06:34;100102.38;;;7.69;37.38
54122;BME280;40029;58.708;50.190;2023-04-05T02:09:06;100137.22;;;7.98;37.48
54122;BME280;40029;58.708;50.190;2023-04-05T02:11:37;100090.97;;;7.76;37.73
54122;BME280;40029;58.708;50.190;2023-04-05T02:14:08;100147.91;;;8.23;36.95
54122;BME280;40029;58.708;50.190;2023-04-05T02:17:00;100123.66;;;8.24;36.87
54122;BME280;40029;58.708;50.190;2023-04-05T02:19:33;100138.13;;;8.37;36.95
54122;BME280;40029;58.708;50.190;2023-04-05T02:22:29;100128.63;;;8.35;36.23
54122;BME280;40029;58.708;50.190;2023-04-05T02:25:02;100129.28;;;8.44;36.55
54122;BME280;40029;58.708;50.190;2023-04-05T02:27:34;100099.38;;;8.26;36.63
54122;BME280;40029;58.708;50.190;2023-04-05T02:30:05;100137.00;;;8.47;37.27
54122;BME280;40029;58.708;50.190;2023-04-05T02:32:36;100132.59;;;8.51;36.57
54122;BME280;40029;58.708;50.190;2023-04-05T02:35:08;100139.44;;;8.55;36.78
54122;BME280;40029;58.708;50.190;2023-04-05T02:37:40;100106.91;;;8.39;36.76
54122;BME280;40029;58.708;50.190;2023-04-05T02:40:30;100101.69;;;8.40;37.20
54122;BME280;40029;58.708;50.190;2023-04-05T02:43:02;100140.97;;;8.62;36.94
54122;BME280;40029;58.708;50.190;2023-04-05T02:45:52;100129.00;;;8.57;36.61
54122;BME280;40029;58.708;50.190;2023-04-05T02:48:44;100136.66;;;8.61;36.56
54122;BME280;40029;58.708;50.190;2023-04-05T02:51:19;100136.78;;;8.57;36.99
54122;BME280;40029;58.708;50.190;2023-04-05T02:53:50;100123.78;;;8.58;36.40
54122;BME280;40029;58.708;50.190;2023-04-05T02:56:21;100129.66;;;8.65;36.66
54122;BME280;40029;58.708;50.190;2023-04-05T02:58:52;100076.56;;;8.41;36.94
54122;BME280;40029;58.708;50.190;2023-04-05T03:01:27;100121.81;;;8.68;36.70
54122;BME280;40029;58.708;50.190;2023-04-05T03:04:17;100125.00;;;8.77;36.95
54122;BME280;40029;58.708;50.190;2023-04-05T03:06:48;100122.38;;;8.79;36.20
54122;BME280;40029;58.708;50.190;2023-04-05T03:09:24;100104.28;;;8.76;36.61
54122;BME280;40029;58.708;50.190;2023-04-05T03:12:02;100128.94;;;8.94;36.10
54122;BME280;40029;58.708;50.190;2023-04-05T03:14:35;100079.28;;;8.72;36.78
54122;BME280;40029;58.708;50.190;2023-04-05T03:17:25;100118.38;;;9.00;36.35
54122;BME280;40029;58.708;50.190;2023-04-05T03:20:05;100085.91;;;8.84;35.96
54122;BME280;40029;58.708;50.190;2023-04-05T03:22:37;100088.34;;;8.90;36.26
54122;BME280;40029;58.708;50.190;2023-04-05T03:25:09;100130.66;;;9.27;36.14
54122;BME280;40029;58.708;50.190;2023-04-05T03:27:47;100130.34;;;9.38;35.81
54122;BME280;40029;58.708;50.190;2023-04-05T03:30:22;100119.88;;;9.41;36.21
54122;BME280;40029;58.708;50.190;2023-04-05T03:33:01;100130.66;;;9.59;35.79
54122;BME280;40029;58.708;50.190;2023-04-05T03:35:52;100097.81;;;9.56;35.20
54122;BME280;40029;58.708;50.190;2023-04-05T03:38:23;100098.72;;;9.54;35.52
54122;BME280;40029;58.708;50.190;2023-04-05T03:41:08;100078.91;;;9.49;35.25
54122;BME280;40029;58.708;50.190;2023-04-05T03:43:58;100110.97;;;9.80;34.95
54122;BME280;40029;58.708;50.190;2023-04-05T03:46:29;100123.84;;;9.86;34.16
54122;BME280;40029;58.708;50.190;2023-04-05T03:49:01;100104.72;;;9.85;34.29
54122;BME280;40029;58.708;50.190;2023-04-05T03:51:50;100089.81;;;9.62;34.88
54122;BME280;40029;58.708;50.190;2023-04-05T03:54:22;100118.13;;;9.73;34.43
54122;BME280;40029;58.708;50.190;2023-04-05T03:56:58;100104.38;;;9.68;34.30
54122;BME280;40029;58.708;50.190;2023-04-05T03:59:32;100064.41;;;9.41;34.12
54122;BME280;40029;58.708;50.190;2023-04-05T04:02:05;100096.03;;;9.57;34.19
54122;BME280;40029;58.708;50.190;2023-04-05T04:04:36;100083.25;;;9.49;34.17
54122;BME280;40029;58.708;50.190;2023-04-05T04:07:07;100060.88;;;9.43;34.11
54122;BME280;40029;58.708;50.190;2023-04-05T04:09:39;100106.75;;;9.75;34.02
54122;BME280;40029;58.708;50.190;2023-04-05T04:12:13;100068.16;;;9.62;33.43
54122;BME280;40029;58.708;50.190;2023-04-05T04:14:53;100105.28;;;9.96;33.26
54122;BME280;40029;58.708;50.190;2023-04-05T04:17:54;100113.47;;;10.12;32.98
54122;BME280;40029;58.708;50.190;2023-04-05T04:20:37;100110.16;;;10.07;33.18
54122;BME280;40029;58.708;50.190;2023-04-05T04:23:19;100116.00;;;10.15;32.11
54122;BME280;40029;58.708;50.190;2023-04-05T04:26:28;100078.47;;;9.93;32.43
54122;BME280;40029;58.708;50.190;2023-04-05T04:29:22;100075.44;;;10.07;31.30
54122;BME280;40029;58.708;50.190;2023-04-05T04:32:34;100080.19;;;10.22;31.12
54122;BME280;40029;58.708;50.190;2023-04-05T04:35:39;100110.50;;;10.52;31.49
54122;BME280;40029;58.708;50.190;2023-04-05T04:38:40;100090.78;;;10.45;31.17
54122;BME280;40029;58.708;50.190;2023-04-05T04:41:15;100082.44;;;10.61;31.25
54122;BME280;40029;58.708;50.190;2023-04-05T04:43:55;100110.88;;;10.93;31.83
54122;BME280;40029;58.708;50.190;2023-04-05T04:46:29;100075.66;;;10.82;31.51
54122;BME280;40029;58.708;50.190;2023-04-05T04:49:10;100107.16;;;11.25;31.12
54122;BME280;40029;58.708;50.190;2023-04-05T04:51:49;100064.06;;;11.15;31.20
54122;BME280;40029;58.708;50.190;2023-04-05T04:54:23;100079.84;;;11.36;31.17
54122;BME280;40029;58.708;50.190;2023-04-05T04:56:54;100092.22;;;11.54;30.58
54122;BME280;40029;58.708;50.190;2023-04-05T04:59:45;100087.84;;;11.55;30.85
54122;BME280;40029;58.708;50.190;2023-04-05T05:02:16;100077.47;;;11.53;30.34
54122;BME280;40029;58.708;50.190;2023-04-05T05:04:47;100103.28;;;11.61;30.31
54122;BME280;40029;58.708;50.190;2023-04-05T05:07:19;100060.75;;;11.35;30.34
54122;BME280;40029;58.708;50.190;2023-04-05T05:09:50;100102.03;;;11.71;30.18
54122;BME280;40029;58.708;50.190;2023-04-05T05:12:23;100107.81;;;11.79;29.36
54122;BME280;40029;58.708;50.190;2023-04-05T05:14:56;100107.28;;;11.94;29.12
54122;BME280;40029;58.708;50.190;2023-04-05T05:17:28;100062.47;;;11.82;29.75
54122;BME280;40029;58.708;50.190;2023-04-05T05:20:18;100078.38;;;11.99;29.02
54122;BME280;40029;58.708;50.190;2023-04-05T05:22:50;100111.13;;;12.30;28.09
54122;BME280;40029;58.708;50.190;2023-04-05T05:25:22;100074.84;;;12.22;27.84
54122;BME280;40029;58.708;50.190;2023-04-05T05:27:53;100090.84;;;12.36;28.52
54122;BME280;40029;58.708;50.190;2023-04-05T05:30:27;100106.00;;;12.48;28.33
54122;BME280;40029;58.708;50.190;2023-04-05T05:32:58;100070.44;;;12.44;28.00
54122;BME280;40029;58.708;50.190;2023-04-05T05:35:29;100089.41;;;12.71;28.05
54122;BME280;40029;58.708;50.190;2023-04-05T05:38:00;100100.00;;;12.89;27.09
54122;BME280;40029;58.708;50.190;2023-04-05T05:40:32;100057.69;;;12.59;27.08
54122;BME280;40029;58.708;50.190;2023-04-05T05:43:03;100068.47;;;12.71;27.61
54122;BME280;40029;58.708;50.190;2023-04-05T05:45:34;100103.34;;;12.92;26.81
54122;BME280;40029;58.708;50.190;2023-04-05T05:48:06;100061.56;;;12.70;26.92
54122;BME280;40029;58.708;50.190;2023-04-05T05:50:55;100084.50;;;12.84;26.79
54122;BME280;40029;58.708;50.190;2023-04-05T05:53:27;100103.91;;;12.99;26.54
54122;BME280;40029;58.708;50.190;2023-04-05T05:55:58;100040.22;;;12.59;26.52
54122;BME280;40029;58.708;50.190;2023-04-05T05:58:29;100111.25;;;13.11;26.29
54122;BME280;40029;58.708;50.190;2023-04-05T06:01:19;100084.63;;;13.01;25.97
54122;BME280;40029;58.708;50.190;2023-04-05T06:03:53;100120.97;;;13.30;26.35
54122;BME280;40029;58.708;50.190;2023-04-05T06:06:25;100123.56;;;13.30;26.52
54122;BME280;40029;58.708;50.190;2023-04-05T06:08:56;100077.50;;;13.05;26.38
54122;BME280;40029;58.708;50.190;2023-04-05T06:11:27;100123.22;;;13.37;26.25
54122;BME280;40029;58.708;50.190;2023-04-05T06:13:58;100123.94;;;13.41;26.62
54122;BME280;40029;58.708;50.190;2023-04-05T06:16:29;100125.50;;;13.45;26.34
54122;BME280;40029;58.708;50.190;2023-04-05T06:19:00;100078.41;;;13.24;26.21
54122;BME280;40029;58.708;50.190;2023-04-05T06:21:50;100084.97;;;13.35;26.39
54122;BME280;40029;58.708;50.190;2023-04-05T06:24:21;100118.47;;;13.66;26.12
54122;BME280;40029;58.708;50.190;2023-04-05T06:26:52;100113.81;;;13.72;26.16
54122;BME280;40029;58.708;50.190;2023-04-05T06:29:23;100118.28;;;13.89;25.92
54122;BME280;40029;58.708;50.190;2023-04-05T06:31:55;100096.66;;;13.84;25.42
54122;BME280;40029;58.708;50.190;2023-04-05T06:34:26;100077.34;;;13.87;25.40
54122;BME280;40029;58.708;50.190;2023-04-05T06:37:15;100123.41;;;14.29;25.45
54122;BME280;40029;58.708;50.190;2023-04-05T06:39:46;100051.25;;;13.85;25.46
54122;BME280;40029;58.708;50.190;2023-04-05T06:42:17;100119.44;;;14.39;25.10
54122;BME280;40029;58.708;50.190;2023-04-05T06:44:56;100118.13;;;14.47;24.91
54122;BME280;40029;58.708;50.190;2023-04-05T06:47:27;100078.41;;;14.38;24.83
54122;BME280;40029;58.708;50.190;2023-04-05T06:49:58;100083.28;;;14.45;24.53
54122;BME280;40029;58.708;50.190;2023-04-05T06:52:48;100121.06;;;14.78;24.25
54122;BME280;40029;58.708;50.190;2023-04-05T06:55:19;100117.91;;;14.88;23.95
54122;BME280;40029;58.708;50.190;2023-04-05T06:57:50;100119.38;;;14.94;23.82
54122;BME280;40029;58.708;50.190;2023-04-05T07:00:21;100123.28;;;15.03;23.49
54122;BME280;40029;58.708;50.190;2023-04-05T07:02:52;100079.50;;;14.87;23.29
54122;BME280;40029;58.708;50.190;2023-04-05T07:05:23;100119.66;;;15.22;22.82
54122;BME280;40029;58.708;50.190;2023-04-05T07:07:54;100111.00;;;15.20;22.82
54122;BME280;40029;58.708;50.190;2023-04-05T07:10:25;100117.00;;;15.40;22.51
54122;BME280;40029;58.708;50.190;2023-04-05T07:12:56;100098.53;;;15.41;22.18
54122;BME280;40029;58.708;50.190;2023-04-05T07:15:28;100111.97;;;15.53;22.29
54122;BME280;40029;58.708;50.190;2023-04-05T07:17:59;100123.03;;;15.75;21.92
54122;BME280;40029;58.708;50.190;2023-04-05T07:20:30;100124.94;;;15.89;21.38
54122;BME280;40029;58.708;50.190;2023-04-05T07:23:01;100094.84;;;15.94;21.02
54122;BME280;40029;58.708;50.190;2023-04-05T07:25:50;100076.72;;;16.06;20.51
54122;BME280;40029;58.708;50.190;2023-04-05T07:28:21;100039.06;;;16.05;20.37
54122;BME280;40029;58.708;50.190;2023-04-05T07:30:52;100117.53;;;16.74;20.20
54122;BME280;40029;58.708;50.190;2023-04-05T07:33:23;100076.84;;;16.64;19.41
54122;BME280;40029;58.708;50.190;2023-04-05T07:35:55;100079.78;;;16.90;19.02
54122;BME280;40029;58.708;50.190;2023-04-05T07:38:26;100083.75;;;17.11;18.82
54122;BME280;40029;58.708;50.190;2023-04-05T07:40:59;100093.59;;;17.38;18.29
54122;BME280;40029;58.708;50.190;2023-04-05T07:43:30;100120.13;;;17.78;17.98
54122;BME280;40029;58.708;50.190;2023-04-05T07:46:02;100120.03;;;17.93;18.20
54122;BME280;40029;58.708;50.190;2023-04-05T07:48:34;100071.94;;;17.90;17.84
54122;BME280;40029;58.708;50.190;2023-04-05T07:51:06;100077.16;;;18.04;17.73
54122;BME280;40029;58.708;50.190;2023-04-05T07:53:38;100118.09;;;18.24;18.00
54122;BME280;40029;58.708;50.190;2023-04-05T07:56:10;100082.72;;;18.14;17.59
54122;BME280;40029;58.708;50.190;2023-04-05T07:58:41;100116.59;;;18.47;17.77
54122;BME280;40029;58.708;50.190;2023-04-05T08:01:12;100104.38;;;18.59;17.27
54122;BME280;40029;58.708;50.190;2023-04-05T08:03:44;100098.66;;;18.79;17.02
54122;BME280;40029;58.708;50.190;2023-04-05T08:06:15;100069.63;;;18.79;17.03
54122;BME280;40029;58.708;50.190;2023-04-05T08:08:49;100087.94;;;19.08;16.89
54122;BME280;40029;58.708;50.190;2023-04-05T08:11:20;100056.13;;;18.96;16.78
54122;BME280;40029;58.708;50.190;2023-04-05T08:13:52;100063.63;;;19.15;16.29
54122;BME280;40029;58.708;50.190;2023-04-05T08:16:42;100110.66;;;19.36;16.47
54122;BME280;40029;58.708;50.190;2023-04-05T08:19:14;100099.88;;;19.52;16.31
54122;BME280;40029;58.708;50.190;2023-04-05T08:21:45;100064.19;;;19.20;16.25
54122;BME280;40029;58.708;50.190;2023-04-05T08:24:16;100030.03;;;19.17;16.20
54122;BME280;40029;58.708;50.190;2023-04-05T08:27:05;100063.72;;;19.52;15.93
54122;BME280;40029;58.708;50.190;2023-04-05T08:29:37;100111.47;;;19.87;15.78
54122;BME280;40029;58.708;50.190;2023-04-05T08:32:08;100034.25;;;19.45;15.66
54122;BME280;40029;58.708;50.190;2023-04-05T08:34:39;100114.66;;;19.92;15.64
54122;BME280;40029;58.708;50.190;2023-04-05T08:37:33;100113.69;;;19.93;15.11
54122;BME280;40029;58.708;50.190;2023-04-05T08:40:35;100055.69;;;19.66;14.95
54122;BME280;40029;58.708;50.190;2023-04-05T08:43:33;100084.66;;;19.68;15.29
54122;BME280;40029;58.708;50.190;2023-04-05T08:46:13;100103.19;;;19.68;15.65
54122;BME280;40029;58.708;50.190;2023-04-05T08:48:44;100100.31;;;19.58;15.71
54122;BME280;40029;58.708;50.190;2023-04-05T08:51:22;100111.94;;;19.56;15.64
54122;BME280;40029;58.708;50.190;2023-04-05T08:53:53;100034.16;;;19.09;15.88
54122;BME280;40029;58.708;50.190;2023-04-05T08:56:46;100070.63;;;19.29;15.23
54122;BME280;40029;58.708;50.190;2023-04-05T08:59:19;100078.75;;;19.13;15.57
54122;BME280;40029;58.708;50.190;2023-04-05T09:02:21;100103.69;;;19.22;13.98
54122;BME280;40029;58.708;50.190;2023-04-05T09:04:52;100105.38;;;19.10;14.27
54122;BME280;40029;58.708;50.190;2023-04-05T09:07:43;100065.63;;;18.86;13.95
54122;BME280;40029;58.708;50.190;2023-04-05T09:10:18;100117.22;;;19.17;13.54
54122;BME280;40029;58.708;50.190;2023-04-05T09:12:51;100123.03;;;19.22;13.38
54122;BME280;40029;58.708;50.190;2023-04-05T09:15:22;100125.44;;;19.13;12.83
54122;BME280;40029;58.708;50.190;2023-04-05T09:17:56;100120.53;;;18.94;12.87
54122;BME280;40029;58.708;50.190;2023-04-05T09:20:27;100047.25;;;18.45;12.80
54122;BME280;40029;58.708;50.190;2023-04-05T09:22:58;100119.03;;;18.77;12.96
54122;BME280;40029;58.708;50.190;2023-04-05T09:25:33;100132.16;;;18.79;13.03
54122;BME280;40029;58.708;50.190;2023-04-05T09:28:39;100123.28;;;18.53;13.74
54122;BME280;40029;58.708;50.190;2023-04-05T09:31:32;100086.13;;;18.29;13.90
54122;BME280;40029;58.708;50.190;2023-04-05T09:34:04;100118.56;;;18.43;14.24
54122;BME280;40029;58.708;50.190;2023-04-05T09:36:35;100112.91;;;18.22;14.03
54122;BME280;40029;58.708;50.190;2023-04-05T09:39:13;100073.25;;;17.97;14.71
54122;BME280;40029;58.708;50.190;2023-04-05T09:42:09;100123.31;;;18.38;14.18
54122;BME280;40029;58.708;50.190;2023-04-05T09:44:59;100040.84;;;17.95;14.25
54122;BME280;40029;58.708;50.190;2023-04-05T09:47:34;100073.38;;;18.08;14.27
54122;BME280;40029;58.708;50.190;2023-04-05T09:52:45;100074.94;;;18.25;13.40
54122;BME280;40029;58.708;50.190;2023-04-05T09:55:27;100070.19;;;18.30;12.90
54122;BME280;40029;58.708;50.190;2023-04-05T09:57:58;100111.47;;;18.58;13.43
54122;BME280;40029;58.708;50.190;2023-04-05T10:00:30;100115.28;;;18.67;13.34
54122;BME280;40029;58.708;50.190;2023-04-05T10:03:02;100116.31;;;18.64;13.01
54122;BME280;40029;58.708;50.190;2023-04-05T10:05:33;100118.94;;;18.79;13.25
54122;BME280;40029;58.708;50.190;2023-04-05T10:08:04;100112.94;;;18.89;13.13
54122;BME280;40029;58.708;50.190;2023-04-05T10:10:55;100076.06;;;18.75;13.13
54122;BME280;40029;58.708;50.190;2023-04-05T10:13:27;100109.56;;;18.87;12.84
54122;BME280;40029;58.708;50.190;2023-04-05T10:15:59;100085.28;;;18.82;12.94
54122;BME280;40029;58.708;50.190;2023-04-05T10:18:40;100063.19;;;18.83;12.75
54122;BME280;40029;58.708;50.190;2023-04-05T10:21:19;100101.75;;;19.11;12.76
54122;BME280;40029;58.708;50.190;2023-04-05T10:24:08;100104.13;;;19.29;13.36
54122;BME280;40029;58.708;50.190;2023-04-05T10:26:55;100051.28;;;19.03;12.35
54122;BME280;40029;58.708;50.190;2023-04-05T10:29:49;100098.59;;;19.44;12.68
54122;BME280;40029;58.708;50.190;2023-04-05T10:32:29;100097.56;;;19.47;12.09
54122;BME280;40029;58.708;50.190;2023-04-05T10:35:19;100092.41;;;19.33;12.85
54122;BME280;40029;58.708;50.190;2023-04-05T10:38:27;100107.19;;;19.35;12.14
54122;BME280;40029;58.708;50.190;2023-04-05T10:41:14;100070.72;;;19.28;11.34
54122;BME280;40029;58.708;50.190;2023-04-05T10:43:47;100058.25;;;19.30;11.36
54122;BME280;40029;58.708;50.190;2023-04-05T10:46:19;100087.28;;;19.55;11.45
54122;BME280;40029;58.708;50.190;2023-04-05T10:51:49;100106.66;;;19.43;11.82
54122;BME280;40029;58.708;50.190;2023-04-05T10:54:21;100086.69;;;19.39;11.55
54122;BME280;40029;58.708;50.190;2023-04-05T10:56:53;100096.28;;;19.53;11.90
54122;BME280;40029;58.708;50.190;2023-04-05T10:59:26;100059.94;;;19.31;11.84
54122;BME280;40029;58.708;50.190;2023-04-05T11:02:17;100086.97;;;19.60;11.50
54122;BME280;40029;58.708;50.190;2023-04-05T11:05:33;100100.00;;;19.76;11.51
54122;BME280;40029;58.708;50.190;2023-04-05T11:08:08;100102.63;;;19.76;12.14
54122;BME280;40029;58.708;50.190;2023-04-05T11:10:51;100046.06;;;19.65;11.44
54122;BME280;40029;58.708;50.190;2023-04-05T11:13:51;100097.09;;;19.91;12.15
54122;BME280;40029;58.708;50.190;2023-04-05T11:16:37;100087.78;;;19.86;11.53
54122;BME280;40029;58.708;50.190;2023-04-05T11:19:09;100072.38;;;19.80;11.90
54122;BME280;40029;58.708;50.190;2023-04-05T11:21:40;100048.16;;;19.73;11.77
54122;BME280;40029;58.708;50.190;2023-04-05T11:24:13;100094.34;;;19.93;12.00
54122;BME280;40029;58.708;50.190;2023-04-05T11:27:08;100077.34;;;20.08;11.62
54122;BME280;40029;58.708;50.190;2023-04-05T11:29:46;100081.03;;;20.18;11.56
54122;BME280;40029;58.708;50.190;2023-04-05T11:32:20;100044.06;;;20.06;11.63
54122;BME280;40029;58.708;50.190;2023-04-05T11:35:16;100080.72;;;20.34;11.84
54122;BME280;40029;58.708;50.190;2023-04-05T11:38:05;100089.41;;;20.49;11.03
54122;BME280;40029;58.708;50.190;2023-04-05T11:40:38;100078.50;;;20.41;11.43
54122;BME280;40029;58.708;50.190;2023-04-05T11:43:10;100047.44;;;20.43;11.32
54122;BME280;40029;58.708;50.190;2023-04-05T11:45:42;100059.81;;;20.55;11.36
54122;BME280;40029;58.708;50.190;2023-04-05T11:48:13;100046.06;;;20.50;11.13
54122;BME280;40029;58.708;50.190;2023-04-05T11:50:46;100074.44;;;20.72;11.18
54122;BME280;40029;58.708;50.190;2023-04-05T11:53:17;100079.03;;;20.81;11.10
54122;BME280;40029;58.708;50.190;2023-04-05T11:55:50;100089.06;;;20.54;11.51
54122;BME280;40029;58.708;50.190;2023-04-05T11:58:23;100049.63;;;20.62;11.52
54122;BME280;40029;58.708;50.190;2023-04-05T12:01:05;100030.03;;;20.40;11.68
54122;BME280;40029;58.708;50.190;2023-04-05T12:03:39;100078.03;;;20.71;11.55
54122;BME280;40029;58.708;50.190;2023-04-05T12:06:10;100030.63;;;20.44;11.43
54122;BME280;40029;58.708;50.190;2023-04-05T12:08:45;100078.53;;;20.65;11.27
54122;BME280;40029;58.708;50.190;2023-04-05T12:11:26;100059.91;;;20.30;11.68
54122;BME280;40029;58.708;50.190;2023-04-05T12:13:59;100085.53;;;20.29;11.78
54122;BME280;40029;58.708;50.190;2023-04-05T12:16:31;100037.88;;;19.81;11.96
54122;BME280;40029;58.708;50.190;2023-04-05T12:19:02;100046.38;;;19.73;12.27
54122;BME280;40029;58.708;50.190;2023-04-05T12:21:51;100085.00;;;19.63;12.52
54122;BME280;40029;58.708;50.190;2023-04-05T12:24:23;100085.00;;;19.63;12.40
54122;BME280;40029;58.708;50.190;2023-04-05T12:26:54;100051.28;;;19.41;12.54
54122;BME280;40029;58.708;50.190;2023-04-05T12:29:26;100052.31;;;19.64;12.56
54122;BME280;40029;58.708;50.190;2023-04-05T12:31:57;100051.78;;;19.96;12.16
54122;BME280;40029;58.708;50.190;2023-04-05T12:34:30;100053.03;;;20.75;11.45
54122;BME280;40029;58.708;50.190;2023-04-05T12:37:02;100026.72;;;21.30;10.60
54122;BME280;40029;58.708;50.190;2023-04-05T12:39:34;100048.53;;;21.22;10.68
54122;BME280;40029;58.708;50.190;2023-04-05T12:42:16;100041.69;;;21.53;10.44
54122;BME280;40029;58.708;50.190;2023-04-05T12:45:01;100073.00;;;21.93;10.10
54122;BME280;40029;58.708;50.190;2023-04-05T12:47:58;100069.91;;;22.09;9.95
54122;BME280;40029;58.708;50.190;2023-04-05T12:50:30;100082.56;;;22.39;9.20
54122;BME280;40029;58.708;50.190;2023-04-05T12:53:05;100060.47;;;21.84;9.16
54122;BME280;40029;58.708;50.190;2023-04-05T12:55:47;100088.69;;;20.93;10.57
54122;BME280;40029;58.708;50.190;2023-04-05T12:58:20;100074.59;;;20.82;10.82
54122;BME280;40029;58.708;50.190;2023-04-05T13:00:51;100061.84;;;20.28;11.15
54122;BME280;40029;58.708;50.190;2023-04-05T13:03:24;100043.56;;;20.49;10.97
54122;BME280;40029;58.708;50.190;2023-04-05T13:06:15;100049.31;;;20.78;11.09
54122;BME280;40029;58.708;50.190;2023-04-05T13:09:04;100086.78;;;21.42;10.55
54122;BME280;40029;58.708;50.190;2023-04-05T13:11:35;100054.94;;;21.76;9.92
54122;BME280;40029;58.708;50.190;2023-04-05T13:14:06;100057.53;;;21.98;9.39
54122;BME280;40029;58.708;50.190;2023-04-05T13:16:38;100045.72;;;21.91;9.15
54122;BME280;40029;58.708;50.190;2023-04-05T13:19:09;100045.63;;;21.81;9.02
54122;BME280;40029;58.708;50.190;2023-04-05T13:21:40;100081.75;;;22.16;9.14
54122;BME280;40029;58.708;50.190;2023-04-05T13:24:11;100095.88;;;22.81;8.91
54122;BME280;40029;58.708;50.190;2023-04-05T13:26:42;100069.69;;;22.76;8.68
54122;BME280;40029;58.708;50.190;2023-04-05T13:29:14;100088.78;;;23.02;8.31
54122;BME280;40029;58.708;50.190;2023-04-05T13:31:45;100084.09;;;22.74;8.66
54122;BME280;40029;58.708;50.190;2023-04-05T13:34:16;100074.34;;;22.95;8.47
54122;BME280;40029;58.708;50.190;2023-04-05T13:36:47;100080.22;;;22.78;8.71
54122;BME280;40029;58.708;50.190;2023-04-05T13:39:19;100083.13;;;22.75;8.63
54122;BME280;40029;58.708;50.190;2023-04-05T13:41:50;100044.13;;;22.75;8.41
54122;BME280;40029;58.708;50.190;2023-04-05T13:44:22;100050.22;;;23.08;8.33